createdAt,value
2018-01-02T00:00:11.096Z,12.27
2018-01-02T00:02:39.489Z,7.03
2018-01-02T00:05:07.843Z,10.63
2018-01-02T00:07:36.142Z,6.90
2018-01-02T00:10:04.822Z,10.53
2018-01-02T00:12:33.215Z,7.67
2018-01-02T00:15:04.924Z,9.00
2018-01-02T00:17:34.090Z,14.30
2018-01-02T00:20:05.372Z,10.00
2018-01-02T00:22:34.795Z,9.70
2018-01-02T00:25:03.133Z,15.50
2018-01-02T00:27:31.599Z,13.63
2018-01-02T00:29:59.883Z,9.23
2018-01-02T00:32:28.650Z,11.43
2018-01-02T00:34:57.102Z,9.17
2018-01-02T00:37:25.811Z,13.27
2018-01-02T00:39:54.181Z,11.33
2018-01-02T00:42:22.819Z,14.17
2018-01-02T00:44:51.187Z,13.10
2018-01-02T00:47:19.765Z,11.30
2018-01-02T00:49:48.659Z,10.17
2018-01-02T00:52:17.191Z,14.03
2018-01-02T00:54:47.769Z,11.30
2018-01-02T00:57:16.274Z,10.80
2018-01-02T00:59:45.556Z,13.07
2018-01-02T01:02:14.535Z,12.93
2018-01-02T01:04:45.935Z,10.07
2018-01-02T01:07:14.870Z,9.10
2018-01-02T01:09:43.694Z,7.63
2018-01-02T01:12:12.014Z,5.80
2018-01-02T01:14:40.351Z,9.03
2018-01-02T01:19:43.435Z,6.80
2018-01-02T01:22:12.042Z,9.57
2018-01-02T01:24:40.330Z,8.50
2018-01-02T01:27:08.627Z,11.33
2018-01-02T01:29:36.948Z,9.17
2018-01-02T01:32:05.405Z,13.30
2018-01-02T01:34:33.734Z,7.70
2018-01-02T01:37:02.073Z,9.27
2018-01-02T01:39:30.499Z,7.20
2018-01-02T01:41:59.022Z,4.67
2018-01-02T01:44:27.463Z,5.93
2018-01-02T01:46:55.826Z,6.83
2018-01-02T01:49:24.119Z,13.00
2018-01-02T01:51:52.511Z,6.60
2018-01-02T01:54:21.838Z,15.73
2018-01-02T01:56:50.168Z,10.60
2018-01-02T01:59:18.450Z,6.50
2018-01-02T02:01:46.742Z,8.63
2018-01-02T02:04:15.027Z,7.90
2018-01-02T02:06:43.404Z,4.93
2018-01-02T02:09:11.688Z,7.97
2018-01-02T02:11:46.787Z,8.20
2018-01-02T02:14:15.072Z,11.00
2018-01-02T02:16:43.388Z,7.30
2018-01-02T02:19:11.821Z,6.73
2018-01-02T02:21:40.110Z,5.30
2018-01-02T02:24:08.408Z,15.07
2018-01-02T02:26:36.807Z,9.57
2018-01-02T02:29:05.244Z,10.57
2018-01-02T02:31:33.554Z,8.40
2018-01-02T02:34:08.579Z,5.33
2018-01-02T02:36:36.907Z,4.90
2018-01-02T02:39:05.303Z,3.97
2018-01-02T02:41:33.819Z,7.30
2018-01-02T02:44:02.931Z,5.30
2018-01-02T02:46:31.229Z,5.47
2018-01-02T02:48:59.499Z,7.60
2018-01-02T02:51:27.846Z,6.47
2018-01-02T02:53:56.156Z,9.20
2018-01-02T02:56:24.491Z,6.43
2018-01-02T02:58:52.755Z,4.80
2018-01-02T03:01:21.043Z,10.10
2018-01-02T03:03:49.423Z,5.50
2018-01-02T03:06:17.716Z,7.23
2018-01-02T03:08:45.980Z,3.77
2018-01-02T03:11:14.354Z,6.43
2018-01-02T03:13:42.739Z,11.70
2018-01-02T03:16:11.134Z,5.17
2018-01-02T03:18:39.390Z,9.10
2018-01-02T03:21:07.848Z,7.67
2018-01-02T03:23:36.110Z,11.63
2018-01-02T03:26:04.605Z,8.50
2018-01-02T03:28:35.678Z,7.97
2018-01-02T03:31:04.731Z,8.53
2018-01-02T03:33:33.608Z,9.50
2018-01-02T03:36:02.988Z,9.30
2018-01-02T03:38:33.235Z,13.73
2018-01-02T03:41:01.660Z,7.43
2018-01-02T03:43:29.964Z,10.10
2018-01-02T03:45:58.412Z,9.33
2018-01-02T03:48:26.774Z,5.93
2018-01-02T03:50:55.066Z,8.47
2018-01-02T03:53:23.322Z,12.57
2018-01-02T03:55:51.640Z,7.23
2018-01-02T03:58:20.005Z,7.00
2018-01-02T04:00:48.470Z,9.83
2018-01-02T04:03:17.079Z,9.30
2018-01-02T04:05:45.447Z,16.83
2018-01-02T04:08:13.914Z,11.87
2018-01-02T04:10:42.220Z,6.50
2018-01-02T04:13:10.527Z,9.20
2018-01-02T04:15:38.844Z,10.13
2018-01-02T04:18:07.128Z,8.93
2018-01-02T04:20:35.522Z,8.60
2018-01-02T04:23:03.815Z,7.70
2018-01-02T04:25:32.140Z,17.20
2018-01-02T04:28:00.471Z,7.73
2018-01-02T04:30:28.758Z,8.33
2018-01-02T04:32:57.184Z,11.10
2018-01-02T04:35:25.570Z,10.10
2018-01-02T04:37:54.070Z,7.20
2018-01-02T04:40:22.351Z,7.27
2018-01-02T04:42:50.770Z,15.93
2018-01-02T04:45:19.159Z,10.80
2018-01-02T04:47:47.432Z,7.53
2018-01-02T04:50:15.718Z,7.37
2018-01-02T04:52:44.020Z,10.70
2018-01-02T04:55:12.308Z,7.03
2018-01-02T04:57:40.623Z,11.60
2018-01-02T05:00:09.404Z,11.50
2018-01-02T05:02:37.695Z,7.23
2018-01-02T05:05:05.990Z,7.77
2018-01-02T05:07:35.263Z,11.70
2018-01-02T05:10:03.691Z,9.43
2018-01-02T05:12:32.166Z,13.87
2018-01-02T05:15:00.639Z,6.17
2018-01-02T05:17:29.579Z,11.03
2018-01-02T05:19:57.853Z,8.03
2018-01-02T05:22:26.303Z,10.10
2018-01-02T05:24:54.573Z,6.80
2018-01-02T05:27:22.882Z,10.20
2018-01-02T05:29:51.212Z,8.30
2018-01-02T05:32:19.601Z,10.20
2018-01-02T05:34:47.914Z,13.90
2018-01-02T05:37:16.215Z,8.63
2018-01-02T05:39:44.494Z,12.80
2018-01-02T05:42:12.790Z,11.40
2018-01-02T05:44:41.109Z,14.23
2018-01-02T05:47:09.453Z,10.23
2018-01-02T05:49:37.747Z,10.90
2018-01-02T05:52:06.055Z,14.43
2018-01-02T05:54:34.330Z,11.80
2018-01-02T05:57:02.635Z,11.00
2018-01-02T05:59:31.018Z,8.93
2018-01-02T06:01:59.345Z,9.87
2018-01-02T06:04:27.779Z,10.47
2018-01-02T06:06:56.086Z,10.00
2018-01-02T06:09:24.352Z,8.90
2018-01-02T06:11:52.858Z,15.53
2018-01-02T06:14:21.286Z,17.00
2018-01-02T06:16:51.258Z,15.50
2018-01-02T06:19:20.072Z,10.33
2018-01-02T06:21:48.385Z,11.30
2018-01-02T06:24:16.847Z,8.03
2018-01-02T06:26:45.293Z,10.20
2018-01-02T06:29:13.618Z,6.70
2018-01-02T06:31:42.364Z,3.73
2018-01-02T06:34:11.309Z,5.53
2018-01-02T06:36:39.716Z,4.53
2018-01-02T06:39:08.018Z,4.07
2018-01-02T06:41:36.314Z,5.63
2018-01-02T06:44:04.606Z,7.07
2018-01-02T06:46:32.923Z,8.93
2018-01-02T06:49:01.258Z,4.47
2018-01-02T06:51:29.555Z,4.63
2018-01-02T06:53:57.851Z,5.60
2018-01-02T06:56:26.134Z,6.60
2018-01-02T06:58:54.423Z,3.33
2018-01-02T07:01:22.868Z,4.23
2018-01-02T07:03:51.140Z,3.87
2018-01-02T07:06:19.439Z,4.30
2018-01-02T07:08:47.875Z,4.40
2018-01-02T07:11:16.178Z,3.97
2018-01-02T07:13:44.622Z,3.23
2018-01-02T07:16:12.937Z,3.80
2018-01-02T07:18:41.219Z,5.27
2018-01-02T07:21:09.502Z,3.77
2018-01-02T07:23:37.781Z,3.77
2018-01-02T07:26:06.163Z,3.40
2018-01-02T07:28:34.484Z,6.73
2018-01-02T07:31:02.791Z,3.43
2018-01-02T07:33:31.085Z,5.50
2018-01-02T07:35:59.376Z,3.17
2018-01-02T07:38:27.658Z,5.87
2018-01-02T07:40:55.949Z,3.87
2018-01-02T07:43:24.374Z,8.83
2018-01-02T07:45:52.889Z,10.73
2018-01-02T07:48:21.259Z,4.43
2018-01-02T07:50:49.662Z,7.80
2018-01-02T07:53:18.092Z,5.47
2018-01-02T07:55:46.387Z,7.13
2018-01-02T07:58:14.655Z,5.70
2018-01-02T08:00:49.658Z,11.33
2018-01-02T08:03:17.926Z,8.03
2018-01-02T08:05:46.245Z,7.40
2018-01-02T08:08:14.531Z,5.03
2018-01-02T08:10:43.003Z,8.87
2018-01-02T08:13:11.307Z,4.77
2018-01-02T08:15:39.603Z,5.70
2018-01-02T08:18:07.887Z,4.53
2018-01-02T08:20:36.219Z,5.47
2018-01-02T08:23:04.751Z,7.87
2018-01-02T08:25:33.059Z,4.53
2018-01-02T08:28:01.364Z,4.37
2018-01-02T08:30:29.645Z,5.50
2018-01-02T08:32:58.040Z,5.77
2018-01-02T08:35:26.359Z,4.50
2018-01-02T08:37:54.633Z,4.83
2018-01-02T08:40:22.944Z,5.27
2018-01-02T08:42:51.294Z,5.30
2018-01-02T08:45:19.710Z,3.30
2018-01-02T08:47:48.142Z,4.70
2018-01-02T08:50:16.443Z,5.13
2018-01-02T08:52:44.894Z,4.00
2018-01-02T08:55:13.193Z,4.93
2018-01-02T08:57:41.471Z,3.53
2018-01-02T09:00:09.911Z,4.67
2018-01-02T09:02:38.213Z,3.80
2018-01-02T09:05:06.568Z,5.53
2018-01-02T09:07:35.059Z,5.67
2018-01-02T09:10:03.472Z,6.50
2018-01-02T09:12:35.948Z,5.93
2018-01-02T09:15:04.286Z,6.33
2018-01-02T09:17:32.553Z,6.50
2018-01-02T09:20:00.862Z,4.20
2018-01-02T09:22:29.313Z,10.27
2018-01-02T09:24:57.739Z,7.43
2018-01-02T09:27:26.123Z,10.20
2018-01-02T09:29:54.438Z,11.03
2018-01-02T09:32:22.723Z,6.93
2018-01-02T09:34:51.118Z,7.87
2018-01-02T09:37:19.472Z,11.77
2018-01-02T09:39:47.773Z,12.87
2018-01-02T09:42:16.191Z,12.80
2018-01-02T09:44:44.631Z,13.20
2018-01-02T09:47:13.550Z,13.80
2018-01-02T09:49:42.099Z,15.00
2018-01-02T09:52:10.600Z,12.27
2018-01-02T09:54:38.900Z,11.03
2018-01-02T09:57:07.222Z,12.70
2018-01-02T09:59:35.545Z,14.07
2018-01-02T10:02:03.871Z,21.63
2018-01-02T10:04:32.153Z,14.50
2018-01-02T10:07:00.484Z,18.67
2018-01-02T10:09:28.788Z,19.10
2018-01-02T10:11:57.119Z,17.63
2018-01-02T10:14:25.459Z,18.60
2018-01-02T10:16:53.850Z,22.97
2018-01-02T10:19:22.161Z,19.47
2018-01-02T10:21:50.488Z,18.80
2018-01-02T10:24:18.900Z,19.00
2018-01-02T10:26:47.321Z,20.63
2018-01-02T10:29:15.691Z,19.23
2018-01-02T10:31:44.183Z,17.47
2018-01-02T10:34:12.635Z,21.00
2018-01-02T10:36:41.107Z,17.17
2018-01-02T10:39:09.574Z,17.70
2018-01-02T10:41:37.914Z,18.73
2018-01-02T10:44:06.174Z,17.50
2018-01-02T10:46:34.640Z,15.40
2018-01-02T10:49:02.930Z,20.13
2018-01-02T10:51:31.244Z,26.10
2018-01-02T10:54:00.543Z,20.57
2018-01-02T10:56:28.962Z,28.70
2018-01-02T10:58:57.243Z,25.50
2018-01-02T11:01:28.444Z,22.90
2018-01-02T11:03:56.755Z,20.60
2018-01-02T11:06:25.110Z,26.13
2018-01-02T11:08:53.620Z,26.87
2018-01-02T11:11:22.142Z,23.83
2018-01-02T11:13:53.581Z,29.93
2018-01-02T11:16:22.055Z,26.77
2018-01-02T11:18:52.108Z,25.40
2018-01-02T11:21:21.243Z,23.73
2018-01-02T11:23:49.535Z,22.17
2018-01-02T11:26:17.866Z,19.03
2018-01-02T11:28:46.382Z,20.43
2018-01-02T11:31:14.758Z,21.80
2018-01-02T11:33:43.060Z,19.80
2018-01-02T11:36:12.439Z,16.97
2018-01-02T11:38:40.790Z,15.80
2018-01-02T11:41:09.282Z,18.07
2018-01-02T11:43:37.600Z,22.27
2018-01-02T11:46:05.933Z,16.33
2018-01-02T11:48:34.224Z,25.57
2018-01-02T11:51:02.630Z,26.53
2018-01-02T11:53:30.915Z,21.00
2018-01-02T11:55:59.226Z,29.03
2018-01-02T11:58:27.718Z,28.57
2018-01-02T12:00:56.127Z,30.90
2018-01-02T12:03:24.397Z,34.40
2018-01-02T12:05:52.974Z,38.10
2018-01-02T12:08:21.245Z,28.57
2018-01-02T12:10:49.764Z,37.50
2018-01-02T12:13:18.063Z,35.70
2018-01-02T12:15:46.380Z,28.30
2018-01-02T12:18:14.695Z,24.77
2018-01-02T12:20:43.059Z,29.30
2018-01-02T12:23:11.375Z,34.63
2018-01-02T12:25:39.727Z,27.57
2018-01-02T12:28:08.067Z,26.60
2018-01-02T12:30:36.410Z,22.03
2018-01-02T12:33:04.806Z,32.93
2018-01-02T12:35:33.171Z,25.97
2018-01-02T12:38:01.492Z,24.73
2018-01-02T12:40:31.436Z,21.80
2018-01-02T12:43:00.072Z,29.60
2018-01-02T12:45:35.452Z,22.67
2018-01-02T12:48:04.707Z,25.37
2018-01-02T12:50:33.035Z,28.70
2018-01-02T12:53:01.327Z,23.23
2018-01-02T12:55:29.785Z,24.70
2018-01-02T12:57:58.108Z,18.50
2018-01-02T13:00:26.475Z,26.20
2018-01-02T13:02:54.760Z,16.60
2018-01-02T13:05:26.369Z,26.73
2018-01-02T13:07:55.267Z,16.30
2018-01-02T13:10:23.746Z,27.23
2018-01-02T13:12:52.046Z,21.37
2018-01-02T13:15:20.399Z,18.00
2018-01-02T13:17:53.364Z,28.63
2018-01-02T13:20:23.055Z,23.87
2018-01-02T13:22:51.338Z,18.90
2018-01-02T13:25:19.718Z,22.07
2018-01-02T13:27:48.006Z,19.97
2018-01-02T13:30:16.478Z,20.10
2018-01-02T13:32:44.769Z,20.80
2018-01-02T13:35:13.176Z,15.03
2018-01-02T13:37:41.443Z,19.23
2018-01-02T13:40:09.967Z,20.70
2018-01-02T13:42:38.270Z,24.60
2018-01-02T13:45:06.883Z,15.00
2018-01-02T13:47:35.146Z,18.70
2018-01-02T13:50:04.434Z,14.17
2018-01-02T13:52:32.700Z,13.80
2018-01-02T13:55:01.059Z,20.27
2018-01-02T13:57:29.410Z,20.67
2018-01-02T13:59:57.816Z,17.30
2018-01-02T14:02:26.156Z,18.60
2018-01-02T14:04:54.435Z,24.03
2018-01-02T14:07:22.872Z,17.77
2018-01-02T14:09:51.231Z,14.37
2018-01-02T14:12:19.598Z,17.17
2018-01-02T14:14:48.412Z,14.00
2018-01-02T14:17:16.790Z,22.97
2018-01-02T14:19:45.092Z,12.97
2018-01-02T14:22:13.415Z,13.10
2018-01-02T14:24:42.686Z,15.00
2018-01-02T14:27:11.014Z,13.97
2018-01-02T14:29:39.371Z,14.80
2018-01-02T14:32:07.681Z,15.07
2018-01-02T14:34:36.050Z,18.43
2018-01-02T14:37:04.455Z,15.23
2018-01-02T14:39:32.906Z,20.10
2018-01-02T14:42:01.396Z,39.53
2018-01-02T14:44:29.729Z,12.50
2018-01-02T14:46:58.259Z,16.87
2018-01-02T14:49:26.564Z,19.13
2018-01-02T14:51:54.873Z,21.63
2018-01-02T14:54:23.555Z,14.70
2018-01-02T14:56:52.667Z,19.63
2018-01-02T14:59:20.958Z,15.10
2018-01-02T15:01:49.273Z,18.20
2018-01-02T15:04:17.723Z,13.87
2018-01-02T15:06:46.215Z,16.53
2018-01-02T15:09:14.637Z,17.37
2018-01-02T15:11:42.951Z,15.70
2018-01-02T15:14:11.296Z,16.43
2018-01-02T15:16:40.866Z,15.57
2018-01-02T15:19:09.178Z,16.83
2018-01-02T15:21:37.515Z,27.50
2018-01-02T15:24:05.818Z,22.53
2018-01-02T15:26:34.143Z,56.47
2018-01-02T15:29:02.447Z,44.13
2018-01-02T15:31:31.435Z,25.00
2018-01-02T15:33:59.743Z,25.87
2018-01-02T15:36:28.101Z,44.00
2018-01-02T15:38:56.411Z,38.97
2018-01-02T15:41:24.775Z,31.30
2018-01-02T15:44:56.241Z,24.23
2018-01-02T15:47:26.241Z,41.03
2018-01-02T15:49:54.694Z,43.90
2018-01-02T15:52:23.051Z,28.20
2018-01-02T15:54:58.190Z,32.10
2018-01-02T15:57:26.565Z,32.07
2018-01-02T15:59:54.862Z,20.03
2018-01-02T16:02:23.228Z,15.10
2018-01-02T16:04:51.744Z,37.67
2018-01-02T16:07:20.092Z,35.80
2018-01-02T16:09:48.482Z,44.17
2018-01-02T16:12:16.839Z,42.80
2018-01-02T16:14:45.146Z,50.23
2018-01-02T16:17:14.255Z,33.53
2018-01-02T16:19:42.602Z,35.40
2018-01-02T16:22:10.980Z,21.17
2018-01-02T16:24:40.709Z,13.47
2018-01-02T16:27:10.582Z,22.13
2018-01-02T16:29:39.217Z,26.80
2018-01-02T16:32:07.824Z,61.47
2018-01-02T16:34:36.447Z,39.10
2018-01-02T16:37:04.941Z,27.30
2018-01-02T16:39:33.237Z,42.47
2018-01-02T16:42:01.551Z,45.23
2018-01-02T16:44:29.923Z,42.27
2018-01-02T16:46:59.900Z,28.67
2018-01-02T16:49:28.818Z,52.90
2018-01-02T16:52:04.400Z,38.07
2018-01-02T16:54:32.694Z,35.70
2018-01-02T16:57:01.009Z,29.87
2018-01-02T16:59:29.351Z,22.40
2018-01-02T17:01:57.671Z,17.03
2018-01-02T17:04:26.147Z,18.60
2018-01-02T17:06:54.419Z,21.53
2018-01-02T17:09:22.891Z,13.17
2018-01-02T17:11:51.367Z,20.03
2018-01-02T17:14:19.655Z,16.70
2018-01-02T17:16:47.954Z,20.20
2018-01-02T17:19:19.315Z,16.33
2018-01-02T17:21:47.742Z,19.20
2018-01-02T17:24:16.022Z,12.07
2018-01-02T17:26:44.412Z,12.23
2018-01-02T17:29:12.704Z,17.27
2018-01-02T17:31:41.068Z,14.20
2018-01-02T17:34:09.529Z,17.40
2018-01-02T17:36:38.186Z,12.17
2018-01-02T17:39:06.686Z,12.63
2018-01-02T17:41:35.266Z,11.10
2018-01-02T17:44:03.564Z,16.40
2018-01-02T17:46:31.959Z,12.80
2018-01-02T17:49:00.409Z,23.70
2018-01-02T17:51:28.788Z,19.60
2018-01-02T17:53:57.303Z,9.30
2018-01-02T17:56:25.688Z,16.00
2018-01-02T17:58:54.105Z,12.50
2018-01-02T18:01:22.487Z,16.37
2018-01-02T18:03:51.155Z,12.73
2018-01-02T18:06:19.614Z,11.67
2018-01-02T18:08:48.076Z,19.53
2018-01-02T18:11:16.514Z,14.83
2018-01-02T18:13:45.023Z,14.50
2018-01-02T18:16:13.430Z,10.50
2018-01-02T18:18:41.728Z,9.83
2018-01-02T18:21:10.078Z,11.60
2018-01-02T18:23:38.511Z,12.80
2018-01-02T18:26:07.012Z,20.10
2018-01-02T18:28:35.290Z,9.93
2018-01-02T18:31:04.584Z,15.43
2018-01-02T18:33:32.986Z,15.03
2018-01-02T18:36:01.619Z,9.57
2018-01-02T18:38:32.902Z,22.20
2018-01-02T18:41:02.270Z,14.03
2018-01-02T18:43:31.193Z,19.17
2018-01-02T18:46:00.673Z,14.00
2018-01-02T18:48:30.220Z,21.73
2018-01-02T18:50:58.574Z,13.40
2018-01-02T18:53:26.847Z,10.97
2018-01-02T18:55:55.176Z,11.13
2018-01-02T18:58:23.536Z,8.10
2018-01-02T19:00:51.931Z,17.97
2018-01-02T19:03:20.235Z,12.03
2018-01-02T19:05:48.544Z,10.17
2018-01-02T19:08:16.994Z,15.30
2018-01-02T19:10:45.327Z,21.40
2018-01-02T19:13:13.615Z,15.50
2018-01-02T19:15:41.919Z,9.70
2018-01-02T19:18:10.196Z,9.47
2018-01-02T19:20:38.508Z,9.87
2018-01-02T19:23:06.783Z,12.17
2018-01-02T19:25:35.134Z,14.20
2018-01-02T19:28:04.962Z,12.60
2018-01-02T19:30:34.075Z,7.20
2018-01-02T19:33:04.879Z,8.70
2018-01-02T19:35:33.274Z,9.83
2018-01-02T19:38:01.815Z,6.83
2018-01-02T19:40:30.353Z,8.00
2018-01-02T19:42:58.765Z,14.20
2018-01-02T19:45:27.354Z,12.67
2018-01-02T19:47:55.896Z,19.47
2018-01-02T19:50:24.271Z,44.13
2018-01-02T19:52:52.894Z,19.30
2018-01-02T19:55:21.250Z,10.80
2018-01-02T19:57:50.270Z,32.10
2018-01-02T20:00:21.940Z,30.50
2018-01-02T20:02:50.249Z,28.53
2018-01-02T20:05:18.571Z,20.90
2018-01-02T20:07:46.927Z,36.50
2018-01-02T20:10:15.276Z,24.93
2018-01-02T20:12:44.776Z,30.40
2018-01-02T20:15:13.102Z,14.27
2018-01-02T20:17:41.668Z,20.07
2018-01-02T20:20:09.986Z,21.00
2018-01-02T20:22:38.278Z,20.07
2018-01-02T20:25:06.588Z,26.13
2018-01-02T20:27:35.076Z,20.00
2018-01-02T20:30:03.452Z,14.50
2018-01-02T20:32:32.927Z,11.10
2018-01-02T20:35:01.415Z,15.63
2018-01-02T20:37:29.808Z,19.23
2018-01-02T20:39:59.898Z,10.60
2018-01-02T20:42:28.691Z,20.43
2018-01-02T20:44:57.248Z,14.50
2018-01-02T20:47:25.640Z,11.27
2018-01-02T20:49:53.947Z,23.43
2018-01-02T20:52:22.843Z,12.73
2018-01-02T20:54:51.136Z,17.87
2018-01-02T20:57:19.474Z,16.77
2018-01-02T20:59:47.754Z,17.30
2018-01-02T21:02:16.069Z,10.30
2018-01-02T21:04:44.551Z,18.07
2018-01-02T21:07:12.847Z,16.37
2018-01-02T21:09:42.649Z,14.57
2018-01-02T21:12:12.346Z,10.87
2018-01-02T21:14:40.690Z,13.00
2018-01-02T21:17:09.566Z,11.00
2018-01-02T21:19:38.167Z,13.70
2018-01-02T21:22:06.647Z,14.73
2018-01-02T21:24:35.091Z,9.10
2018-01-02T21:27:03.694Z,16.60
2018-01-02T21:29:32.074Z,10.57
2018-01-02T21:32:00.650Z,12.40
2018-01-02T21:34:29.739Z,9.13
2018-01-02T21:36:58.155Z,9.73
2018-01-02T21:39:26.502Z,13.03
2018-01-02T21:41:54.962Z,19.47
2018-01-02T21:44:23.366Z,18.73
2018-01-02T21:46:51.748Z,21.83
2018-01-02T21:49:21.748Z,15.17
2018-01-02T21:51:50.473Z,17.47
2018-01-02T21:54:18.768Z,20.53
2018-01-02T21:56:47.094Z,15.00
2018-01-02T21:59:15.537Z,21.60
2018-01-02T22:01:43.887Z,16.20
2018-01-02T22:04:12.408Z,20.20
2018-01-02T22:06:41.003Z,16.27
2018-01-02T22:09:09.520Z,17.23
2018-01-02T22:11:37.914Z,16.87
2018-01-02T22:14:06.330Z,20.90
2018-01-02T22:16:34.646Z,14.90
2018-01-02T22:19:03.127Z,23.37
2018-01-02T22:21:32.318Z,14.80
2018-01-02T22:24:00.691Z,18.10
2018-01-02T22:26:28.987Z,21.00
2018-01-02T22:28:57.312Z,14.40
2018-01-02T22:31:26.030Z,17.83
2018-01-02T22:33:54.817Z,19.27
2018-01-02T22:36:23.453Z,17.77
2018-01-02T22:38:51.935Z,21.53
2018-01-02T22:41:20.812Z,19.80
2018-01-02T22:43:49.270Z,19.23
2018-01-02T22:46:17.588Z,19.87
2018-01-02T22:48:45.927Z,20.23
2018-01-02T22:51:14.595Z,20.80
2018-01-02T22:53:42.898Z,20.63
2018-01-02T22:56:11.490Z,17.60
2018-01-02T22:58:39.836Z,18.83
2018-01-02T23:01:08.434Z,19.20
2018-01-02T23:03:36.899Z,16.40
2018-01-02T23:06:05.242Z,21.20
2018-01-02T23:08:33.569Z,17.50
2018-01-02T23:11:01.919Z,17.97
2018-01-02T23:13:30.204Z,20.07
2018-01-02T23:15:58.507Z,16.43
2018-01-02T23:18:26.835Z,17.40
2018-01-02T23:20:55.400Z,17.20
2018-01-02T23:23:23.731Z,17.00
2018-01-02T23:25:52.335Z,20.53
2018-01-02T23:28:20.615Z,20.63
2018-01-02T23:30:48.943Z,17.10
2018-01-02T23:33:17.376Z,21.37
2018-01-02T23:35:45.715Z,17.10
2018-01-02T23:38:14.047Z,20.67
2018-01-02T23:40:42.340Z,15.37
2018-01-02T23:43:10.858Z,21.37
2018-01-02T23:45:39.172Z,18.57
2018-01-02T23:48:07.522Z,17.33
2018-01-02T23:50:35.831Z,15.00
2018-01-02T23:53:04.173Z,18.57
2018-01-02T23:55:32.573Z,17.73
2018-01-02T23:58:01.012Z,14.93
